createdAt,value
2023-04-16T00:01:04.927Z,0.80
2023-04-16T00:03:31.561Z,0.95
2023-04-16T00:05:59.282Z,0.68
2023-04-16T00:08:25.966Z,1.02
2023-04-16T00:10:55.579Z,1.15
2023-04-16T00:13:22.732Z,0.75
2023-04-16T00:15:49.260Z,0.88
2023-04-16T00:18:15.735Z,0.77
2023-04-16T00:20:42.258Z,0.70
2023-04-16T00:23:08.785Z,1.00
2023-04-16T00:25:35.316Z,0.80
2023-04-16T00:28:01.768Z,0.80
2023-04-16T00:30:28.232Z,0.82
2023-04-16T00:32:54.716Z,1.17
2023-04-16T00:35:21.404Z,0.98
2023-04-16T00:37:47.853Z,0.80
2023-04-16T00:40:14.305Z,1.00
2023-04-16T00:42:40.804Z,0.93
2023-04-16T00:45:07.944Z,0.82
2023-04-16T00:47:34.578Z,0.80
2023-04-16T00:50:02.820Z,0.80
2023-04-16T00:52:29.650Z,0.80
2023-04-16T00:54:56.453Z,0.98
2023-04-16T00:57:24.030Z,0.60
2023-04-16T00:59:50.575Z,0.95
2023-04-16T01:02:17.608Z,0.90
2023-04-16T01:04:44.276Z,0.70
2023-04-16T01:07:11.248Z,0.88
2023-04-16T01:09:37.706Z,0.95
2023-04-16T01:12:04.279Z,1.00
2023-04-16T01:14:36.143Z,0.80
2023-04-16T01:17:03.885Z,0.90
2023-04-16T01:19:36.359Z,0.73
2023-04-16T01:22:03.986Z,0.85
2023-04-16T01:24:31.172Z,0.88
2023-04-16T01:26:59.368Z,0.80
2023-04-16T01:29:26.470Z,0.90
2023-04-16T01:31:53.244Z,1.05
2023-04-16T01:34:19.904Z,0.90
2023-04-16T01:36:46.389Z,1.00
2023-04-16T01:39:15.654Z,0.90
2023-04-16T01:41:43.682Z,0.80
2023-04-16T01:44:10.524Z,1.00
2023-04-16T01:46:37.844Z,0.98
2023-04-16T01:49:05.875Z,1.00
2023-04-16T01:51:32.482Z,0.90
2023-04-16T01:53:59.131Z,1.05
2023-04-16T01:56:25.824Z,1.10
2023-04-16T01:58:52.940Z,1.00
2023-04-16T02:01:20.000Z,0.90
2023-04-16T02:03:47.360Z,1.08
2023-04-16T02:06:14.771Z,0.90
2023-04-16T02:08:41.817Z,0.80
2023-04-16T02:11:08.441Z,1.10
2023-04-16T02:13:35.070Z,1.02
2023-04-16T02:16:02.584Z,1.10
2023-04-16T02:18:29.199Z,1.02
2023-04-16T02:20:58.596Z,0.80
2023-04-16T02:23:25.226Z,1.00
2023-04-16T02:25:51.703Z,0.90
2023-04-16T02:28:18.252Z,1.33
2023-04-16T02:30:44.762Z,1.10
2023-04-16T02:33:12.150Z,1.30
2023-04-16T02:35:40.099Z,1.00
2023-04-16T02:38:07.730Z,1.05
2023-04-16T02:40:34.329Z,1.40
2023-04-16T02:43:00.964Z,1.15
2023-04-16T02:45:27.935Z,1.10
2023-04-16T02:47:54.442Z,1.00
2023-04-16T02:50:21.100Z,1.15
2023-04-16T02:52:47.679Z,1.63
2023-04-16T02:55:14.154Z,1.20
2023-04-16T02:57:42.442Z,1.00
2023-04-16T03:00:09.866Z,1.30
2023-04-16T03:02:36.504Z,1.00
2023-04-16T03:05:03.567Z,1.50
2023-04-16T03:07:30.251Z,1.33
2023-04-16T03:09:56.874Z,1.23
2023-04-16T03:12:23.391Z,1.40
2023-04-16T03:14:51.778Z,1.30
2023-04-16T03:17:18.333Z,1.33
2023-04-16T03:19:44.807Z,1.35
2023-04-16T03:22:11.294Z,1.30
2023-04-16T03:24:38.241Z,1.52
2023-04-16T03:27:04.729Z,1.52
2023-04-16T03:29:31.201Z,1.30
2023-04-16T03:31:57.737Z,1.42
2023-04-16T03:34:24.382Z,1.60
2023-04-16T03:36:53.947Z,1.60
2023-04-16T03:39:20.624Z,1.30
2023-04-16T03:41:47.062Z,1.40
2023-04-16T03:44:13.500Z,1.48
2023-04-16T03:46:39.960Z,1.50
2023-04-16T03:49:06.693Z,1.63
2023-04-16T03:51:33.159Z,1.67
2023-04-16T03:53:59.654Z,1.70
2023-04-16T03:56:26.263Z,1.80
2023-04-16T03:58:52.718Z,1.77
2023-04-16T04:01:19.186Z,2.08
2023-04-16T04:03:46.005Z,1.65
2023-04-16T04:06:12.642Z,1.67
2023-04-16T04:08:39.117Z,1.63
2023-04-16T04:11:05.669Z,1.90
2023-04-16T04:13:32.109Z,1.83
2023-04-16T04:15:58.739Z,1.70
2023-04-16T04:18:25.652Z,1.70
2023-04-16T04:20:52.555Z,1.65
2023-04-16T04:23:18.994Z,1.80
2023-04-16T04:25:45.509Z,1.77
2023-04-16T04:28:12.013Z,1.70
2023-04-16T04:30:38.464Z,1.80
2023-04-16T04:33:05.042Z,2.00
2023-04-16T04:35:31.542Z,2.08
2023-04-16T04:37:57.987Z,1.73
2023-04-16T04:40:24.544Z,2.00
2023-04-16T04:42:50.962Z,1.98
2023-04-16T04:45:17.460Z,1.80
2023-04-16T04:47:43.996Z,1.95
2023-04-16T04:50:10.849Z,1.80
2023-04-16T04:52:37.313Z,2.13
2023-04-16T04:55:04.019Z,1.80
2023-04-16T04:57:30.462Z,2.03
2023-04-16T04:59:56.902Z,2.10
2023-04-16T05:02:23.443Z,2.40
2023-04-16T05:04:50.041Z,1.88
2023-04-16T05:07:16.518Z,2.10
2023-04-16T05:09:42.976Z,2.28
2023-04-16T05:12:09.466Z,2.17
2023-04-16T05:14:36.385Z,2.30
2023-04-16T05:17:02.941Z,2.00
2023-04-16T05:19:29.719Z,2.55
2023-04-16T05:21:56.317Z,2.28
2023-04-16T05:24:23.253Z,2.50
2023-04-16T05:26:49.796Z,2.45
2023-04-16T05:29:16.240Z,2.50
2023-04-16T05:31:42.781Z,2.30
2023-04-16T05:34:09.266Z,2.28
2023-04-16T05:36:35.743Z,2.42
2023-04-16T05:39:02.258Z,2.03
2023-04-16T05:41:28.843Z,2.42
2023-04-16T05:43:55.282Z,2.33
2023-04-16T05:46:21.788Z,2.70
2023-04-16T05:48:48.300Z,2.33
2023-04-16T05:51:14.735Z,2.65
2023-04-16T05:53:41.751Z,2.70
2023-04-16T05:56:08.685Z,2.50
2023-04-16T05:58:35.244Z,2.70
2023-04-16T06:01:01.837Z,2.63
2023-04-16T06:03:28.390Z,2.13
2023-04-16T06:05:55.077Z,2.53
2023-04-16T06:08:21.576Z,2.80
2023-04-16T06:10:48.453Z,2.63
2023-04-16T06:13:14.917Z,2.45
2023-04-16T06:15:41.411Z,2.47
2023-04-16T06:18:07.901Z,2.63
2023-04-16T06:20:34.434Z,2.50
2023-04-16T06:23:01.097Z,2.40
2023-04-16T06:25:28.703Z,2.70
2023-04-16T06:27:55.333Z,2.92
2023-04-16T06:30:21.826Z,2.60
2023-04-16T06:32:49.432Z,2.80
2023-04-16T06:35:16.199Z,3.60
2023-04-16T06:37:42.634Z,4.35
2023-04-16T06:40:09.443Z,4.10
2023-04-16T06:42:36.157Z,3.85
2023-04-16T06:45:02.713Z,4.30
2023-04-16T06:47:29.190Z,3.80
2023-04-16T06:49:55.680Z,3.67
2023-04-16T06:52:22.144Z,3.58
2023-04-16T06:54:48.699Z,4.05
2023-04-16T06:57:16.115Z,4.10
2023-04-16T06:59:42.785Z,4.18
2023-04-16T07:02:10.654Z,3.88
2023-04-16T07:04:37.321Z,3.42
2023-04-16T07:07:03.964Z,3.80
2023-04-16T07:09:30.977Z,3.95
2023-04-16T07:11:57.508Z,3.72
2023-04-16T07:14:24.000Z,3.90
2023-04-16T07:16:50.547Z,3.80
2023-04-16T07:19:17.038Z,3.97
2023-04-16T07:21:43.828Z,3.63
2023-04-16T07:24:11.672Z,4.03
2023-04-16T07:26:38.125Z,4.07
2023-04-16T07:29:04.609Z,3.88
2023-04-16T07:31:31.130Z,3.60
2023-04-16T07:33:58.589Z,4.15
2023-04-16T07:36:25.173Z,4.00
2023-04-16T07:38:51.606Z,3.90
2023-04-16T07:41:18.093Z,4.13
2023-04-16T07:43:44.525Z,4.00
2023-04-16T07:46:11.022Z,4.10
2023-04-16T07:48:37.472Z,3.70
2023-04-16T07:51:03.948Z,4.25
2023-04-16T07:53:30.511Z,4.28
2023-04-16T07:55:56.940Z,4.18
2023-04-16T07:58:23.441Z,4.03
2023-04-16T08:00:51.035Z,4.30
2023-04-16T08:03:18.306Z,3.97
2023-04-16T08:05:45.019Z,4.25
2023-04-16T08:08:11.548Z,3.70
2023-04-16T08:10:39.112Z,3.92
2023-04-16T08:13:05.922Z,4.32
2023-04-16T08:15:32.530Z,3.90
2023-04-16T08:17:59.698Z,4.03
2023-04-16T08:20:26.450Z,4.07
2023-04-16T08:22:54.878Z,4.40
2023-04-16T08:25:22.824Z,4.00
2023-04-16T08:27:49.309Z,4.10
2023-04-16T08:30:16.698Z,3.92
2023-04-16T08:32:43.638Z,3.80
2023-04-16T08:35:10.345Z,4.10
2023-04-16T08:37:36.755Z,3.80
2023-04-16T08:40:03.610Z,3.83
2023-04-16T08:42:37.074Z,3.95
2023-04-16T08:45:14.897Z,3.72
2023-04-16T08:47:41.872Z,3.75
2023-04-16T08:50:11.237Z,3.55
2023-04-16T08:52:39.949Z,3.60
2023-04-16T08:55:12.571Z,3.75
2023-04-16T08:57:47.145Z,3.05
2023-04-16T09:00:14.268Z,3.45
2023-04-16T09:02:41.186Z,3.58
2023-04-16T09:05:09.543Z,3.55
2023-04-16T09:07:36.737Z,3.50
2023-04-16T09:10:03.291Z,3.63
2023-04-16T09:12:31.374Z,3.95
2023-04-16T09:15:01.139Z,3.28
2023-04-16T09:17:28.169Z,3.40
2023-04-16T09:19:55.081Z,2.90
2023-04-16T09:22:21.567Z,3.45
2023-04-16T09:24:48.168Z,3.72
2023-04-16T09:27:14.582Z,3.40
2023-04-16T09:29:41.588Z,3.42
2023-04-16T09:32:10.263Z,3.45
2023-04-16T09:34:57.386Z,3.47
2023-04-16T09:37:24.747Z,2.95
2023-04-16T09:39:59.471Z,3.42
2023-04-16T09:42:33.501Z,3.20
2023-04-16T09:45:01.375Z,3.03
2023-04-16T09:47:43.227Z,3.47
2023-04-16T09:50:16.418Z,3.35
2023-04-16T09:52:48.467Z,3.00
2023-04-16T09:55:15.396Z,3.53
2023-04-16T09:57:41.912Z,3.28
2023-04-16T10:00:09.506Z,3.00
2023-04-16T10:02:39.351Z,3.08
2023-04-16T10:05:06.448Z,2.92
2023-04-16T10:07:36.716Z,2.90
2023-04-16T10:10:04.412Z,2.80
2023-04-16T10:12:32.818Z,2.72
2023-04-16T10:14:59.503Z,2.65
2023-04-16T10:17:27.333Z,2.80
2023-04-16T10:19:54.750Z,2.80
2023-04-16T10:22:21.491Z,2.50
2023-04-16T10:24:49.140Z,2.30
2023-04-16T10:27:17.242Z,3.05
2023-04-16T10:29:44.674Z,3.05
2023-04-16T10:32:11.769Z,2.63
2023-04-16T10:34:38.997Z,3.10
2023-04-16T10:37:05.577Z,3.22
2023-04-16T10:39:37.527Z,2.83
2023-04-16T10:42:12.125Z,2.70
2023-04-16T10:44:43.517Z,2.65
2023-04-16T10:47:13.255Z,2.60
2023-04-16T10:49:40.410Z,2.55
2023-04-16T10:52:11.531Z,2.90
2023-04-16T10:54:38.292Z,2.70
2023-04-16T10:57:28.971Z,2.88
2023-04-16T10:59:55.399Z,2.75
2023-04-16T11:02:29.195Z,2.80
2023-04-16T11:04:57.338Z,2.75
2023-04-16T11:07:34.770Z,2.90
2023-04-16T11:10:05.166Z,2.70
2023-04-16T11:12:39.356Z,2.75
2023-04-16T11:15:14.037Z,2.55
2023-04-16T11:17:47.740Z,2.47
2023-04-16T11:20:23.452Z,2.45
2023-04-16T11:22:51.320Z,2.58
2023-04-16T11:25:29.489Z,2.97
2023-04-16T11:27:58.717Z,3.17
2023-04-16T11:30:34.075Z,3.10
2023-04-16T11:33:18.776Z,2.67
2023-04-16T11:35:46.068Z,2.92
2023-04-16T11:38:12.576Z,3.28
2023-04-16T11:40:38.990Z,3.00
2023-04-16T11:43:14.377Z,3.03
2023-04-16T11:45:57.307Z,3.10
2023-04-16T11:48:24.022Z,3.13
2023-04-16T11:50:58.004Z,3.15
2023-04-16T11:53:24.785Z,2.88
2023-04-16T11:55:51.307Z,2.80
2023-04-16T11:58:17.921Z,2.95
2023-04-16T12:00:45.113Z,3.10
2023-04-16T12:03:11.912Z,3.10
2023-04-16T12:05:40.774Z,3.15
2023-04-16T12:08:12.292Z,3.35
2023-04-16T12:10:54.025Z,3.10
2023-04-16T12:13:20.645Z,3.40
2023-04-16T12:15:52.101Z,3.20
2023-04-16T12:18:20.556Z,3.47
2023-04-16T12:20:47.575Z,3.10
2023-04-16T12:23:33.671Z,3.15
2023-04-16T12:26:10.609Z,2.95
2023-04-16T12:28:41.602Z,3.17
2023-04-16T12:31:08.468Z,3.40
2023-04-16T12:33:35.139Z,3.60
2023-04-16T12:36:03.510Z,3.65
2023-04-16T12:38:29.998Z,3.22
2023-04-16T12:40:57.668Z,3.28
2023-04-16T12:43:25.107Z,3.20
2023-04-16T12:45:51.616Z,3.30
2023-04-16T12:48:18.095Z,2.83
2023-04-16T12:50:44.708Z,3.00
2023-04-16T12:53:11.683Z,3.15
2023-04-16T12:55:38.174Z,3.38
2023-04-16T12:58:04.593Z,3.40
2023-04-16T13:00:31.126Z,3.65
2023-04-16T13:02:57.760Z,3.33
2023-04-16T13:05:24.306Z,3.10
2023-04-16T13:07:50.964Z,3.28
2023-04-16T13:10:17.487Z,3.20
2023-04-16T13:12:43.927Z,3.20
2023-04-16T13:15:10.772Z,3.38
2023-04-16T13:17:37.353Z,3.42
2023-04-16T13:20:04.079Z,3.35
2023-04-16T13:22:30.552Z,3.33
2023-04-16T13:24:57.127Z,3.85
2023-04-16T13:27:23.603Z,3.30
2023-04-16T13:29:50.077Z,3.30
2023-04-16T13:32:17.360Z,3.63
2023-04-16T13:34:43.776Z,3.20
2023-04-16T13:37:10.267Z,3.40
2023-04-16T13:39:36.728Z,3.50
2023-04-16T13:42:03.259Z,3.67
2023-04-16T13:44:29.722Z,3.47
2023-04-16T13:46:56.678Z,3.70
2023-04-16T13:49:23.522Z,3.63
2023-04-16T13:51:50.633Z,3.78
2023-04-16T13:54:17.094Z,3.70
2023-04-16T13:56:43.956Z,3.60
2023-04-16T13:59:10.764Z,3.72
2023-04-16T14:01:37.474Z,3.42
2023-04-16T14:04:06.854Z,3.65
2023-04-16T14:06:34.800Z,3.63
2023-04-16T14:09:01.870Z,3.78
2023-04-16T14:11:28.505Z,3.58
2023-04-16T14:13:55.064Z,3.70
2023-04-16T14:16:21.656Z,3.58
2023-04-16T14:18:48.159Z,3.65
2023-04-16T14:21:14.615Z,4.20
2023-04-16T14:23:41.202Z,3.72
2023-04-16T14:26:07.672Z,4.00
2023-04-16T14:28:35.508Z,4.15
2023-04-16T14:31:01.986Z,3.50
2023-04-16T14:33:28.408Z,4.43
2023-04-16T14:35:54.869Z,3.88
2023-04-16T14:38:21.410Z,4.18
2023-04-16T14:40:48.574Z,3.88
2023-04-16T14:43:15.030Z,4.22
2023-04-16T14:45:41.826Z,3.80
2023-04-16T14:48:08.437Z,3.75
2023-04-16T14:50:38.890Z,4.07
2023-04-16T14:53:05.738Z,4.07
2023-04-16T14:55:32.704Z,4.05
2023-04-16T14:57:59.802Z,4.32
2023-04-16T15:00:27.485Z,3.83
2023-04-16T15:02:55.067Z,3.63
2023-04-16T15:05:22.216Z,3.78
2023-04-16T15:07:48.697Z,3.88
2023-04-16T15:10:15.537Z,3.50
2023-04-16T15:12:41.966Z,4.43
2023-04-16T15:15:09.204Z,3.75
2023-04-16T15:17:35.942Z,4.03
2023-04-16T15:20:04.745Z,4.18
2023-04-16T15:22:31.388Z,4.15
2023-04-16T15:24:57.882Z,4.25
2023-04-16T15:27:24.411Z,4.75
2023-04-16T15:29:51.020Z,4.75
2023-04-16T15:32:17.507Z,5.40
2023-04-16T15:34:44.054Z,6.38
2023-04-16T15:37:10.721Z,5.93
2023-04-16T15:39:37.209Z,5.78
2023-04-16T15:42:07.770Z,5.90
2023-04-16T15:44:34.685Z,5.05
2023-04-16T15:47:01.258Z,5.25
2023-04-16T15:49:27.783Z,5.70
2023-04-16T15:51:54.388Z,5.68
2023-04-16T15:54:21.503Z,5.32
2023-04-16T15:56:48.133Z,5.50
2023-04-16T15:59:14.606Z,5.65
2023-04-16T16:01:41.214Z,5.50
2023-04-16T16:04:08.319Z,5.47
2023-04-16T16:06:35.424Z,5.53
2023-04-16T16:09:01.914Z,5.22
2023-04-16T16:11:28.438Z,5.25
2023-04-16T16:13:55.092Z,5.70
2023-04-16T16:16:22.006Z,5.93
2023-04-16T16:18:48.750Z,5.32
2023-04-16T16:21:15.263Z,5.60
2023-04-16T16:23:42.032Z,5.95
2023-04-16T16:26:09.277Z,5.20
2023-04-16T16:28:38.708Z,5.05
2023-04-16T16:31:06.032Z,5.30
2023-04-16T16:33:33.009Z,5.70
2023-04-16T16:35:59.402Z,5.30
2023-04-16T16:38:26.201Z,5.60
2023-04-16T16:40:52.703Z,4.78
2023-04-16T16:43:19.270Z,5.35
2023-04-16T16:45:46.513Z,5.82
2023-04-16T16:48:12.959Z,5.20
2023-04-16T16:50:39.422Z,5.30
2023-04-16T16:53:05.935Z,5.50
2023-04-16T16:55:32.374Z,5.10
2023-04-16T16:58:01.944Z,5.18
2023-04-16T17:00:28.551Z,5.18
2023-04-16T17:02:55.182Z,5.55
2023-04-16T17:05:21.890Z,5.78
2023-04-16T17:07:48.306Z,5.30
2023-04-16T17:10:20.190Z,4.93
2023-04-16T17:12:50.447Z,4.95
2023-04-16T17:15:18.578Z,4.85
2023-04-16T17:17:47.359Z,4.78
2023-04-16T17:20:14.265Z,4.78
2023-04-16T17:22:40.815Z,5.10
2023-04-16T17:25:08.217Z,4.88
2023-04-16T17:27:34.825Z,5.07
2023-04-16T17:30:01.982Z,5.03
2023-04-16T17:32:29.677Z,5.07
2023-04-16T17:34:56.470Z,4.57
2023-04-16T17:37:23.309Z,5.10
2023-04-16T17:39:50.040Z,4.90
2023-04-16T17:42:16.535Z,4.65
2023-04-16T17:44:42.986Z,5.30
2023-04-16T17:47:09.404Z,5.15
2023-04-16T17:49:35.955Z,5.30
2023-04-16T17:52:02.402Z,5.40
2023-04-16T17:54:28.835Z,4.93
2023-04-16T17:56:55.261Z,5.00
2023-04-16T17:59:21.759Z,4.78
2023-04-16T18:01:49.538Z,5.68
2023-04-16T18:04:16.466Z,5.28
2023-04-16T18:06:43.290Z,5.30
2023-04-16T18:09:09.782Z,5.57
2023-04-16T18:11:36.271Z,5.45
2023-04-16T18:14:02.783Z,5.68
2023-04-16T18:16:29.226Z,4.88
2023-04-16T18:18:55.725Z,5.32
2023-04-16T18:21:22.409Z,5.75
2023-04-16T18:23:48.928Z,5.28
2023-04-16T18:26:18.615Z,5.85
2023-04-16T18:28:47.464Z,5.88
2023-04-16T18:31:13.957Z,5.75
2023-04-16T18:33:55.661Z,5.18
2023-04-16T18:36:23.656Z,5.75
2023-04-16T18:39:00.828Z,6.10
2023-04-16T18:41:36.605Z,5.53
2023-04-16T18:44:03.027Z,5.55
2023-04-16T18:46:29.453Z,5.53
2023-04-16T18:48:56.032Z,5.72
2023-04-16T18:51:22.480Z,5.75
2023-04-16T18:53:48.894Z,5.45
2023-04-16T18:56:15.468Z,5.70
2023-04-16T18:58:41.962Z,5.82
2023-04-16T19:01:11.333Z,5.80
2023-04-16T19:03:38.442Z,5.82
2023-04-16T19:06:05.918Z,5.45
2023-04-16T19:08:32.395Z,6.05
2023-04-16T19:10:58.872Z,6.00
2023-04-16T19:13:25.373Z,6.13
2023-04-16T19:15:51.838Z,5.22
2023-04-16T19:18:18.302Z,5.80
2023-04-16T19:20:44.739Z,5.90
2023-04-16T19:23:11.513Z,5.68
2023-04-16T19:25:39.590Z,5.90
2023-04-16T19:28:06.072Z,5.88
2023-04-16T19:30:32.691Z,6.28
2023-04-16T19:32:59.170Z,5.60
2023-04-16T19:35:25.812Z,6.20
2023-04-16T19:37:52.298Z,5.93
2023-04-16T19:40:18.823Z,5.68
2023-04-16T19:42:45.492Z,5.93
2023-04-16T19:45:11.992Z,6.10
2023-04-16T19:47:38.612Z,5.80
2023-04-16T19:50:05.881Z,6.25
2023-04-16T19:52:37.389Z,6.10
2023-04-16T19:55:04.775Z,6.10
2023-04-16T19:57:31.183Z,5.93
2023-04-16T19:59:57.606Z,6.03
2023-04-16T20:02:24.193Z,6.30
2023-04-16T20:04:50.838Z,6.28
2023-04-16T20:07:17.522Z,5.90
2023-04-16T20:09:44.012Z,6.32
2023-04-16T20:12:10.500Z,6.00
2023-04-16T20:14:36.954Z,6.30
2023-04-16T20:17:03.559Z,6.22
2023-04-16T20:19:31.572Z,5.70
2023-04-16T20:21:57.993Z,6.55
2023-04-16T20:24:24.598Z,6.47
2023-04-16T20:26:51.023Z,6.10
2023-04-16T20:29:17.433Z,6.15
2023-04-16T20:31:45.882Z,6.70
2023-04-16T20:34:12.347Z,6.90
2023-04-16T20:36:38.850Z,6.75
2023-04-16T20:39:07.900Z,6.53
2023-04-16T20:41:34.370Z,6.25
2023-04-16T20:44:05.366Z,6.28
2023-04-16T20:46:34.185Z,6.18
2023-04-16T20:49:03.340Z,6.25
2023-04-16T20:51:29.770Z,6.68
2023-04-16T20:53:56.332Z,6.68
2023-04-16T20:56:22.744Z,6.47
2023-04-16T20:58:49.224Z,6.97
2023-04-16T21:01:16.297Z,6.82
2023-04-16T21:03:42.984Z,5.95
2023-04-16T21:06:09.516Z,6.78
2023-04-16T21:08:35.958Z,6.90
2023-04-16T21:11:02.389Z,6.43
2023-04-16T21:13:28.851Z,6.55
2023-04-16T21:15:55.356Z,6.50
2023-04-16T21:18:21.905Z,6.80
2023-04-16T21:20:48.330Z,7.03
2023-04-16T21:23:14.806Z,7.30
2023-04-16T21:25:41.297Z,6.68
2023-04-16T21:28:07.750Z,7.13
2023-04-16T21:30:34.214Z,7.20
2023-04-16T21:33:00.871Z,7.03
2023-04-16T21:35:27.358Z,7.05
2023-04-16T21:37:53.783Z,6.97
2023-04-16T21:40:20.350Z,6.75
2023-04-16T21:42:46.787Z,7.03
2023-04-16T21:45:14.539Z,7.25
2023-04-16T21:47:41.201Z,7.13
2023-04-16T21:50:08.336Z,6.85
2023-04-16T21:52:40.159Z,7.40
2023-04-16T21:55:09.162Z,7.65
2023-04-16T21:57:35.593Z,7.20
2023-04-16T22:00:02.329Z,7.82
2023-04-16T22:02:29.055Z,7.18
2023-04-16T22:04:55.665Z,7.53
2023-04-16T22:07:22.140Z,7.80
2023-04-16T22:09:48.594Z,7.88
2023-04-16T22:12:15.020Z,8.02
2023-04-16T22:14:49.143Z,7.05
2023-04-16T22:17:27.703Z,6.95
2023-04-16T22:19:54.569Z,7.80
2023-04-16T22:22:21.888Z,7.05
2023-04-16T22:24:48.787Z,7.00
2023-04-16T22:27:15.589Z,7.35
2023-04-16T22:29:42.150Z,7.10
2023-04-16T22:32:08.763Z,7.20
2023-04-16T22:34:35.208Z,7.20
2023-04-16T22:37:03.021Z,7.00
2023-04-16T22:39:30.786Z,7.22
2023-04-16T22:41:57.256Z,6.88
2023-04-16T22:44:23.658Z,6.95
2023-04-16T22:46:50.084Z,6.88
2023-04-16T22:49:16.615Z,6.95
2023-04-16T22:51:43.397Z,6.82
2023-04-16T22:54:13.670Z,7.22
2023-04-16T22:56:40.772Z,7.28
2023-04-16T22:59:07.599Z,7.25
2023-04-16T23:01:34.954Z,7.53
2023-04-16T23:04:01.562Z,6.93
2023-04-16T23:06:28.001Z,7.50
2023-04-16T23:08:54.424Z,7.05
2023-04-16T23:11:20.888Z,7.32
2023-04-16T23:13:47.359Z,7.28
2023-04-16T23:16:13.846Z,7.30
2023-04-16T23:18:40.378Z,7.65
2023-04-16T23:21:06.819Z,7.32
2023-04-16T23:23:33.388Z,7.63
2023-04-16T23:26:02.590Z,7.43
2023-04-16T23:28:28.995Z,7.18
2023-04-16T23:30:55.693Z,7.78
2023-04-16T23:33:22.226Z,8.18
2023-04-16T23:35:48.655Z,7.43
2023-04-16T23:38:15.141Z,7.82
2023-04-16T23:40:41.553Z,7.80
2023-04-16T23:43:07.971Z,8.10
2023-04-16T23:45:34.416Z,7.50
2023-04-16T23:48:01.063Z,7.72
2023-04-16T23:50:27.517Z,7.60
2023-04-16T23:52:53.989Z,7.45
2023-04-16T23:55:20.686Z,8.18
2023-04-16T23:57:47.188Z,7.95
